Wisconsin Rapids, Wisconsin
Current Conditions -  °F | °C
As of 8:05 AM on Thursday 29 Jan 2015 (Local Time) from KISW Reporting Station
Haze Haze  
Wind Chill: 20°   Ceiling: 1100
Heat Index: 30°   Visibility: 5mi
Dew Point: 25°   Wind: 13mph
Humidity: 82%   Direction: 330°NNW
Pressure: 29.92"   Gusts: NA
Location:  44.39°N, 89.82°W
Report Text: KISW 291405Z AUTO 33011KT 5SM HZ OVC011 M01/M04 A2992 RMK AO2 T10111039
Loading
Personal Weather Stations






























Interactive Weather Map New forecast layout! Learn more

10-Day Weather Forecast

Advertisements
Track Severe Weather on mobile